OMDB/DXB METAR and TAF weather

Enter ICAO airport designator
Station Type Date Time Source
OMDB METAR 2019/10/15 03:00 UTC NOAA

OMDB 150300Z 18007KT CAVOK 28/21 Q1014 NOSIG


Station Type Date Time Source
OMDB Decoded METAR 2019/10/15 03:00 UTC NOAA

Dubai International Airport, United Arab Emirates (OMDB) 25-15N 055-20E 5M
Oct 14, 2019 - 11:00 PM EDT / 2019.10.15 0300 UTC
Wind: from the S (180 degrees) at 8 MPH (7 KT):0
Visibility: greater than 7 mile(s):0
Temperature: 82 F (28 C)
Dew Point: 69 F (21 C)
Relative Humidity: 65%
Pressure (altimeter): 29.94 in. Hg (1014 hPa)
ob: OMDB 150300Z 18007KT CAVOK 28/21 Q1014 NOSIG
cycle: 3

Station Type Date Time Source
OMDB TAF 2019/10/14 18:13 UTC NOAA

TAF OMDB 141702Z 1418/1600 10005KT 8000 NSC
BECMG 1503/1505 18010KT
BECMG 1508/1510 33012KT
BECMG 1518/1520 09005KT

Example: see airport list